Time;durP1;ratioP1;P1;durP2;ratioP2;P2;SDS_P1;SDS_P2;PMS_P1;PMS_P2;Temp;Humidity;BMP_temperature;BMP_pressure;BME280_temperature;BME280_humidity;BME280_pressure;Samples;Min_cycle;Max_cycle;Signal;HPM_P1;HPM_P2
2023/06/21 00:00:51;;;;;;;0.68;0.68;;;;;;;24.04;56.92;100663.59;5174808;28;20034;-85
2023/06/21 00:03:42;;;;;;;0.50;0.50;;;;;;;24.02;56.88;100665.53;5164806;28;20098;-85
2023/06/21 00:06:34;;;;;;;0.60;0.60;;;;;;;23.99;56.69;100660.47;5161177;28;20116;-84
2023/06/21 00:09:25;;;;;;;0.30;0.30;;;;;;;23.95;57.41;100669.72;5159250;28;20273;-84
2023/06/21 00:12:16;;;;;;;1.13;1.13;;;;;;;23.92;56.85;100669.97;5174385;28;20044;-84
2023/06/21 00:15:07;;;;;;;0.40;0.40;;;;;;;23.92;56.94;100669.97;5159694;28;20053;-84
2023/06/21 00:17:58;;;;;;;0.40;0.40;;;;;;;23.88;57.33;100669.38;5179406;28;20038;-85
2023/06/21 00:20:49;;;;;;;0.85;0.73;;;;;;;23.86;56.89;100660.63;5173975;28;20049;-84
2023/06/21 00:23:42;;;;;;;0.45;0.45;;;;;;;23.85;56.58;100665.09;5159811;28;20037;-84
2023/06/21 00:26:33;;;;;;;0.30;0.30;;;;;;;23.85;56.87;100658.91;5159653;28;20034;-84
2023/06/21 00:29:24;;;;;;;0.30;0.30;;;;;;;23.81;56.65;100662.81;5175343;28;20045;-84
2023/06/21 00:32:14;;;;;;;0.40;0.40;;;;;;;23.77;57.12;100664.91;5160149;28;20138;-85
2023/06/21 00:35:06;;;;;;;0.30;0.30;;;;;;;23.74;57.14;100667.84;5162614;28;20104;-85
2023/06/21 00:37:57;;;;;;;0.30;0.30;;;;;;;23.72;56.46;100675.16;5159805;28;20030;-85
2023/06/21 00:40:49;;;;;;;0.20;0.20;;;;;;;23.71;57.40;100684.16;5163850;28;20026;-84
2023/06/21 00:43:40;;;;;;;0.40;0.40;;;;;;;23.69;57.52;100691.47;5175841;28;20486;-84
2023/06/21 00:46:31;;;;;;;0.30;0.30;;;;;;;23.65;57.12;100688.22;5150719;28;20067;-84
2023/06/21 00:49:23;;;;;;;0.45;0.45;;;;;;;23.62;56.62;100698.31;5179593;28;20089;-85
2023/06/21 00:52:14;;;;;;;0.20;0.20;;;;;;;23.61;57.42;100699.28;5161862;28;20156;-84
2023/06/21 00:55:05;;;;;;;1.10;0.75;;;;;;;23.54;56.99;100699.81;5161748;28;20468;-85
2023/06/21 00:57:57;;;;;;;0.60;0.60;;;;;;;23.53;57.27;100708.81;5162450;28;20612;-84
2023/06/21 01:00:54;;;;;;;0.47;0.47;;;;;;;23.48;57.38;100711.03;5172171;28;20034;-84
2023/06/21 01:03:45;;;;;;;0.90;0.50;;;;;;;23.48;57.58;100708.34;5184012;28;20018;-84
2023/06/21 01:06:57;;;;;;;0.30;0.30;;;;;;;23.46;57.06;100715.66;5164842;28;20045;-85
2023/06/21 01:10:19;;;;;;;0.28;0.28;;;;;;;23.40;57.74;100721.53;5172500;28;20050;-85
2023/06/21 01:13:14;;;;;;;0.40;0.40;;;;;;;23.39;56.95;100725.16;5160534;28;20117;-83
2023/06/21 01:16:16;;;;;;;0.43;0.43;;;;;;;23.33;57.47;100736.38;5145040;28;20125;-83
2023/06/21 01:19:24;;;;;;;0.60;0.60;;;;;;;23.35;57.98;100734.41;5171401;28;20552;-84
2023/06/21 01:22:37;;;;;;;0.30;0.30;;;;;;;23.33;57.89;100733.72;5160876;28;20280;-83
2023/06/21 01:25:53;;;;;;;0.30;0.30;;;;;;;23.32;57.55;100742.72;5172373;28;20048;-84
2023/06/21 01:29:10;;;;;;;0.50;0.50;;;;;;;23.24;57.78;100729.94;5170046;28;20424;-84
2023/06/21 01:32:02;;;;;;;1.00;0.93;;;;;;;23.22;57.71;100727.38;5158788;28;20034;-85
2023/06/21 01:34:55;;;;;;;0.60;0.60;;;;;;;23.18;57.76;100733.94;5189450;28;20045;-84
2023/06/21 01:37:49;;;;;;;1.33;1.13;;;;;;;23.17;57.59;100734.91;5176380;28;20034;-84
2023/06/21 01:40:40;;;;;;;0.22;0.22;;;;;;;23.11;57.95;100736.25;5150879;28;20361;-84
2023/06/21 01:43:31;;;;;;;0.38;0.38;;;;;;;23.09;58.05;100737.34;5162696;28;20385;-84
2023/06/21 01:46:25;;;;;;;1.15;0.55;;;;;;;23.06;57.74;100730.41;5162752;28;20046;-85
2023/06/21 01:49:17;;;;;;;0.40;0.40;;;;;;;23.01;58.10;100729.09;5147645;28;20034;-84
2023/06/21 01:52:09;;;;;;;0.40;0.40;;;;;;;23.02;57.72;100720.94;5174649;28;20042;-84
2023/06/21 01:55:00;;;;;;;0.30;0.30;;;;;;;22.99;57.68;100731.03;5186040;28;20044;-85
2023/06/21 01:57:52;;;;;;;0.30;0.30;;;;;;;22.97;57.47;100736.50;5160612;28;20037;-84
2023/06/21 02:00:44;;;;;;;1.45;0.80;;;;;;;22.96;58.13;100737.47;5167410;28;20042;-83
2023/06/21 02:03:39;;;;;;;2.15;1.20;;;;;;;22.95;58.19;100743.81;5141253;28;20030;-83
2023/06/21 02:06:31;;;;;;;0.30;0.30;;;;;;;22.92;58.23;100746.72;5181335;28;20314;-85
2023/06/21 02:09:23;;;;;;;0.20;0.20;;;;;;;22.90;58.56;100744.16;5162091;28;20022;-85
2023/06/21 02:12:14;;;;;;;0.40;0.40;;;;;;;22.88;58.92;100738.06;5159133;28;20069;-85
2023/06/21 02:15:05;;;;;;;0.60;0.60;;;;;;;22.85;58.52;100751.69;5161814;28;20025;-85
2023/06/21 02:17:56;;;;;;;0.20;0.20;;;;;;;22.79;58.47;100753.03;5172311;28;20035;-84
2023/06/21 02:20:47;;;;;;;0.32;0.32;;;;;;;22.81;58.30;100752.06;5171996;28;20054;-85
2023/06/21 02:23:38;;;;;;;0.70;0.70;;;;;;;22.80;59.00;100751.19;5150259;28;20441;-85
2023/06/21 02:26:29;;;;;;;0.52;0.50;;;;;;;22.75;58.69;100746.22;5144994;28;20468;-86
2023/06/21 02:29:20;;;;;;;2.55;1.65;;;;;;;22.74;58.33;100746.34;5149533;28;20026;-84
2023/06/21 02:32:10;;;;;;;0.73;0.60;;;;;;;22.75;58.00;100745.38;5148564;28;20049;-82
2023/06/21 02:35:01;;;;;;;0.50;0.50;;;;;;;22.69;58.92;100751.19;5156321;28;20037;-84
2023/06/21 02:37:56;;;;;;;0.73;0.73;;;;;;;22.66;58.46;100756.78;5162696;28;20034;-85
2023/06/21 02:40:47;;;;;;;0.20;0.20;;;;;;;22.64;59.39;100764.94;5167918;28;20026;-85
2023/06/21 02:43:38;;;;;;;0.60;0.50;;;;;;;22.60;58.84;100764.28;5166094;28;20026;-84
2023/06/21 02:46:28;;;;;;;0.30;0.30;;;;;;;22.56;59.31;100762.84;5175934;28;20037;-84
2023/06/21 02:49:19;;;;;;;1.48;1.10;;;;;;;22.60;58.63;100764.28;5160866;28;20033;-83
2023/06/21 02:52:11;;;;;;;0.43;0.43;;;;;;;22.55;58.52;100766.47;5181100;28;20102;-83
2023/06/21 02:55:04;;;;;;;0.32;0.32;;;;;;;22.52;58.56;100772.06;5182640;28;20092;-82
2023/06/21 02:57:54;;;;;;;0.50;0.50;;;;;;;22.50;58.76;100765.13;5184083;28;20030;-85
2023/06/21 03:00:45;;;;;;;1.67;1.58;;;;;;;22.50;58.64;100768.66;5147620;28;20034;-84
2023/06/21 03:03:36;;;;;;;0.75;0.75;;;;;;;22.50;58.42;100781.16;5160611;28;20040;-82
2023/06/21 03:06:29;;;;;;;1.98;0.90;;;;;;;22.46;58.90;100778.75;5166971;28;20034;-83
2023/06/21 03:09:20;;;;;;;0.30;0.30;;;;;;;22.46;58.38;100778.75;5169147;28;20029;-83
2023/06/21 03:12:11;;;;;;;0.30;0.30;;;;;;;22.44;58.93;100790.50;5166547;28;20034;-83
2023/06/21 03:15:02;;;;;;;0.75;0.75;;;;;;;22.45;58.42;100798.44;5166984;28;20054;-84
2023/06/21 03:17:52;;;;;;;1.52;1.40;;;;;;;22.43;58.94;100804.88;5169047;28;20041;-83
2023/06/21 03:20:43;;;;;;;0.50;0.50;;;;;;;22.42;59.26;100803.16;5159385;28;20038;-83
2023/06/21 03:23:35;;;;;;;0.75;0.68;;;;;;;22.38;59.57;100796.28;5163895;28;20026;-83
2023/06/21 03:26:26;;;;;;;0.80;0.80;;;;;;;22.27;60.60;100808.63;5167599;28;20061;-84
2023/06/21 03:29:20;;;;;;;0.63;0.63;;;;;;;22.32;59.48;100814.50;5179640;28;20032;-84
2023/06/21 03:32:11;;;;;;;0.50;0.50;;;;;;;22.31;59.70;100806.63;5176043;28;20184;-83
2023/06/21 03:35:02;;;;;;;0.65;0.65;;;;;;;22.32;59.37;100813.66;5179975;28;20065;-83
2023/06/21 03:37:52;;;;;;;0.30;0.30;;;;;;;22.27;59.50;100816.66;5166686;28;20030;-83
2023/06/21 03:40:43;;;;;;;1.48;0.90;;;;;;;22.26;59.04;100820.31;5183415;28;20121;-81
2023/06/21 03:43:34;;;;;;;0.45;0.45;;;;;;;22.25;60.77;100817.75;5170167;28;20038;-83
2023/06/21 03:46:25;;;;;;;0.80;0.80;;;;;;;22.24;60.14;100822.25;5165905;28;20069;-81
2023/06/21 03:49:17;;;;;;;0.80;0.77;;;;;;;22.25;61.96;100823.09;5193589;28;20065;-80
2023/06/21 03:52:08;;;;;;;0.68;0.68;;;;;;;22.19;61.50;100818.22;5179283;28;20039;-81
2023/06/21 03:54:59;;;;;;;0.98;0.68;;;;;;;22.18;61.16;100822.72;5173875;28;20034;-83
2023/06/21 03:57:49;;;;;;;0.65;0.65;;;;;;;22.21;61.84;100822.47;5180613;28;20030;-82
2023/06/21 04:00:40;;;;;;;0.60;0.60;;;;;;;22.22;60.54;100821.50;5179945;28;20042;-82
2023/06/21 04:03:31;;;;;;;0.50;0.50;;;;;;;22.26;61.44;100820.31;5183067;28;20033;-84
2023/06/21 04:06:22;;;;;;;0.63;0.63;;;;;;;22.22;62.79;100821.50;5184038;28;20525;-82
2023/06/21 04:09:15;;;;;;;1.13;0.95;;;;;;;22.25;63.63;100831.97;5182648;28;20027;-83
2023/06/21 04:12:06;;;;;;;2.13;1.27;;;;;;;22.27;62.39;100835.38;5169467;28;20038;-82
2023/06/21 04:15:01;;;;;;;0.45;0.45;;;;;;;22.21;63.32;100825.16;5170395;28;20034;-82
2023/06/21 04:17:52;;;;;;;8.45;1.00;;;;;;;22.22;61.80;100824.19;5176530;28;20041;-82
2023/06/21 04:20:42;;;;;;;1.40;1.30;;;;;;;22.32;62.61;100827.00;5190283;28;20385;-82
2023/06/21 04:23:33;;;;;;;0.57;0.57;;;;;;;22.16;62.57;100832.66;5167584;28;20053;-81
2023/06/21 04:26:24;;;;;;;0.43;0.43;;;;;;;22.25;61.70;100839.13;5167528;28;20703;-81
2023/06/21 04:29:19;;;;;;;0.50;0.50;;;;;;;22.24;61.28;100843.63;5167850;28;20033;-82
2023/06/21 04:32:10;;;;;;;0.68;0.65;;;;;;;22.25;62.64;100845.34;5176181;28;20034;-83
2023/06/21 04:35:01;;;;;;;0.80;0.80;;;;;;;22.25;61.47;100853.38;5170223;28;20374;-82
2023/06/21 04:37:52;;;;;;;2.75;1.25;;;;;;;22.17;65.51;100855.75;5177471;28;20026;-81
2023/06/21 04:40:43;;;;;;;4.55;1.83;;;;;;;22.26;61.56;100851.53;5178155;28;20398;-82
2023/06/21 04:43:41;;;;;;;0.80;0.80;;;;;;;22.28;61.74;100854.94;5172137;28;20021;-81
2023/06/21 04:46:39;;;;;;;0.60;0.55;;;;;;;22.37;61.22;100853.38;5180672;28;20157;-81
2023/06/21 04:49:30;;;;;;;0.60;0.60;;;;;;;22.33;61.32;100856.31;5168214;28;20022;-83
2023/06/21 04:52:21;;;;;;;0.55;0.55;;;;;;;22.35;61.22;100855.34;5159912;28;20050;-82
2023/06/21 04:55:18;;;;;;;0.50;0.50;;;;;;;22.38;61.00;100852.44;5162072;28;20112;-83
2023/06/21 04:58:09;;;;;;;0.47;0.47;;;;;;;22.38;60.91;100860.44;5176631;28;20053;-81
2023/06/21 05:01:00;;;;;;;0.63;0.63;;;;;;;22.42;61.39;100872.66;5151027;28;20034;-81
2023/06/21 05:03:57;;;;;;;0.98;0.90;;;;;;;22.41;61.09;100877.13;5165740;28;20029;-82
2023/06/21 05:06:48;;;;;;;0.88;0.88;;;;;;;22.44;61.10;100876.06;5161774;28;20042;-81
2023/06/21 05:09:38;;;;;;;0.80;0.80;;;;;;;22.42;61.70;100878.84;5184520;28;20040;-82
2023/06/21 05:12:29;;;;;;;0.73;0.73;;;;;;;22.39;63.23;100875.53;5177271;28;20132;-82
2023/06/21 05:15:20;;;;;;;1.42;0.90;;;;;;;22.42;63.01;100880.69;5174736;28;20034;-81
2023/06/21 05:18:11;;;;;;;1.02;0.90;;;;;;;22.42;62.78;100883.34;5171375;28;20022;-81
2023/06/21 05:21:02;;;;;;;4.57;2.15;;;;;;;22.46;62.42;100884.81;5176306;28;20057;-81
2023/06/21 05:23:53;;;;;;;5.15;1.52;;;;;;;22.43;65.01;100885.06;5166374;28;20113;-81
2023/06/21 05:26:44;;;;;;;2.00;0.88;;;;;;;22.44;65.99;100892.97;5182650;28;20029;-81
2023/06/21 05:29:35;;;;;;;0.30;0.30;;;;;;;22.53;64.48;100896.75;5186743;28;20026;-81
2023/06/21 05:32:26;;;;;;;1.10;1.00;;;;;;;22.44;66.59;100900.09;5184729;28;20040;-80
2023/06/21 05:35:17;;;;;;;1.08;1.08;;;;;;;22.43;65.40;100896.59;5184235;28;20035;-81
2023/06/21 05:38:08;;;;;;;0.60;0.60;;;;;;;22.32;67.46;100907.19;5170377;28;20022;-80
2023/06/21 05:40:59;;;;;;;0.73;0.73;;;;;;;21.99;69.54;100904.22;5174242;28;20528;-84
2023/06/21 05:43:49;;;;;;;0.77;0.77;;;;;;;22.22;67.60;100908.84;5159669;28;20104;-79
2023/06/21 05:46:40;;;;;;;0.45;0.45;;;;;;;22.32;65.61;100915.22;5158959;28;20038;-81
2023/06/21 05:49:32;;;;;;;0.40;0.40;;;;;;;22.22;67.72;100915.03;5152352;28;20072;-82
2023/06/21 05:52:23;;;;;;;2.50;1.58;;;;;;;22.22;69.16;100915.03;5156036;28;20286;-80
2023/06/21 05:55:14;;;;;;;0.73;0.73;;;;;;;21.98;70.53;100931.91;5153091;28;20041;-81
2023/06/21 05:58:05;;;;;;;0.70;0.70;;;;;;;21.86;72.13;100932.75;5142592;28;20176;-80
2023/06/21 06:00:56;;;;;;;1.75;1.35;;;;;;;21.73;72.49;100929.28;5168435;28;20035;-81
2023/06/21 06:03:49;;;;;;;1.55;1.45;;;;;;;21.61;74.02;100931.00;5155379;28;20034;-82
2023/06/21 06:06:41;;;;;;;1.20;1.10;;;;;;;21.43;74.97;100935.78;5161233;28;20117;-82
2023/06/21 06:09:32;;;;;;;1.10;1.08;;;;;;;21.39;75.26;100936.00;5144415;28;20191;-80
2023/06/21 06:12:23;;;;;;;1.15;1.10;;;;;;;21.67;74.05;100938.56;5153935;28;20041;-81
2023/06/21 06:15:14;;;;;;;0.80;0.80;;;;;;;21.54;75.11;100936.75;5149734;28;20490;-84
2023/06/21 06:18:05;;;;;;;2.92;1.33;;;;;;;21.61;75.22;100941.69;5159901;28;20038;-87
2023/06/21 06:20:55;;;;;;;1.65;1.55;;;;;;;21.32;77.02;100945.38;5159911;28;20045;-81
2023/06/21 06:23:46;;;;;;;1.27;1.17;;;;;;;21.37;76.49;100940.56;5167680;28;20338;-80
2023/06/21 06:26:37;;;;;;;0.55;0.55;;;;;;;21.24;77.58;100945.06;5158408;28;20502;-81
2023/06/21 06:29:28;;;;;;;1.17;0.90;;;;;;;21.41;77.35;100951.03;5155484;28;20029;-81
2023/06/21 06:32:19;;;;;;;1.08;1.05;;;;;;;21.55;77.20;100950.94;5142073;28;20042;-79
2023/06/21 06:35:10;;;;;;;3.85;1.95;;;;;;;21.53;77.15;100964.41;5159670;28;20180;-82
2023/06/21 06:38:01;;;;;;;0.88;0.70;;;;;;;21.63;76.50;100966.47;5163775;28;20521;-82
2023/06/21 06:40:52;;;;;;;0.68;0.68;;;;;;;21.71;77.37;100961.44;5156118;28;20141;-79
2023/06/21 06:43:45;;;;;;;0.77;0.77;;;;;;;21.76;76.00;100963.78;5159584;28;20488;-82
2023/06/21 06:46:36;;;;;;;1.30;0.80;;;;;;;21.65;76.53;100967.22;5157140;28;20046;-81
2023/06/21 06:49:27;;;;;;;1.67;1.45;;;;;;;21.78;76.13;100970.72;5171359;28;20109;-82
2023/06/21 06:52:18;;;;;;;0.90;0.90;;;;;;;21.84;75.28;100977.44;5166781;28;20034;-78
2023/06/21 06:55:09;;;;;;;0.82;0.75;;;;;;;21.84;76.05;100974.78;5167505;28;20121;-79
2023/06/21 06:58:00;;;;;;;1.05;1.00;;;;;;;21.85;76.89;100984.50;5162219;28;20030;-82
2023/06/21 07:00:51;;;;;;;1.42;0.88;;;;;;;21.91;75.78;100986.72;5155283;28;20532;-81
2023/06/21 07:03:42;;;;;;;1.40;0.95;;;;;;;22.08;76.14;100987.34;5156591;28;20066;-79
2023/06/21 07:06:33;;;;;;;1.80;1.65;;;;;;;22.10;75.84;100994.28;5135847;28;20034;-81
2023/06/21 07:09:24;;;;;;;0.85;0.75;;;;;;;22.30;76.59;101000.03;5154873;28;20033;-80
2023/06/21 07:12:15;;;;;;;0.55;0.55;;;;;;;22.28;75.07;101001.94;5152949;28;20615;-82
2023/06/21 07:15:06;;;;;;;0.90;0.90;;;;;;;22.37;74.52;100997.72;5158047;28;20520;-80
2023/06/21 07:17:57;;;;;;;0.60;0.60;;;;;;;22.34;74.05;100990.78;5142994;28;20507;-80
2023/06/21 07:20:48;;;;;;;0.93;0.77;;;;;;;22.33;73.88;101007.78;5170011;28;20546;-79
2023/06/21 07:23:39;;;;;;;0.50;0.50;;;;;;;22.16;74.22;100996.50;5156420;28;20074;-81
2023/06/21 07:26:31;;;;;;;0.52;0.52;;;;;;;22.27;73.19;100997.56;5172384;28;20049;-84
2023/06/21 07:29:22;;;;;;;2.10;1.35;;;;;;;22.27;73.55;101008.25;5155899;28;20188;-80
2023/06/21 07:32:12;;;;;;;0.50;0.45;;;;;;;22.37;74.23;101014.66;5160657;28;20062;-83
2023/06/21 07:35:04;;;;;;;2.30;2.10;;;;;;;22.39;74.28;101007.41;5138989;28;20064;-80
2023/06/21 07:37:55;;;;;;;1.33;1.23;;;;;;;22.47;73.87;101010.38;5169904;28;20030;-80
2023/06/21 07:40:46;;;;;;;0.73;0.73;;;;;;;22.40;73.15;101014.44;5159011;28;20038;-79
2023/06/21 07:43:36;;;;;;;0.77;0.77;;;;;;;22.47;73.45;101009.50;5154516;28;20057;-82
2023/06/21 07:46:27;;;;;;;0.43;0.43;;;;;;;22.63;72.14;101020.78;5160375;28;20063;-79
2023/06/21 07:49:18;;;;;;;0.90;0.90;;;;;;;22.70;72.63;101023.00;5147768;28;20029;-83
2023/06/21 07:52:10;;;;;;;1.42;1.33;;;;;;;22.81;71.43;101024.91;5147177;28;20449;-81
2023/06/21 07:55:05;;;;;;;3.60;1.37;;;;;;;22.76;71.99;101025.25;5141726;28;20032;-83
2023/06/21 07:57:56;;;;;;;2.42;1.63;;;;;;;22.82;70.36;101024.78;5156683;28;20301;-81
2023/06/21 08:00:48;;;;;;;0.30;0.30;;;;;;;22.88;69.90;101029.66;5162245;28;20148;-83
2023/06/21 08:03:40;;;;;;;1.30;1.20;;;;;;;22.93;69.60;101022.13;5160388;28;20045;-79
2023/06/21 08:06:31;;;;;;;1.13;1.02;;;;;;;22.94;69.41;101029.19;5154601;28;20034;-84
2023/06/21 08:09:21;;;;;;;1.15;1.13;;;;;;;22.91;70.40;101026.78;5160616;28;20026;-83
2023/06/21 08:12:13;;;;;;;0.50;0.50;;;;;;;23.02;69.87;101027.78;5157728;28;20085;-82
2023/06/21 08:15:05;;;;;;;0.80;0.73;;;;;;;22.91;70.09;101029.44;5156997;28;20030;-82
2023/06/21 08:17:55;;;;;;;1.63;1.17;;;;;;;23.08;69.15;101028.16;5157316;28;20034;-81
2023/06/21 08:20:47;;;;;;;1.35;1.15;;;;;;;23.19;68.30;101024.72;5177269;28;20034;-80
2023/06/21 08:23:38;;;;;;;1.20;1.08;;;;;;;23.22;68.67;101018.28;5179366;28;20098;-79
2023/06/21 08:26:28;;;;;;;3.10;2.17;;;;;;;23.30;68.36;101023.91;5175639;28;20034;-78
2023/06/21 08:29:19;;;;;;;1.70;1.30;;;;;;;23.33;68.13;101028.19;5185187;28;20063;-79
2023/06/21 08:32:10;;;;;;;1.23;1.23;;;;;;;23.39;68.44;101027.69;5166923;28;20355;-81
2023/06/21 08:35:01;;;;;;;1.25;1.15;;;;;;;23.44;68.00;101028.19;5149695;28;20526;-81
2023/06/21 08:37:57;;;;;;;2.72;1.67;;;;;;;23.42;68.52;101030.16;5158212;28;20250;-77
2023/06/21 08:40:47;;;;;;;1.02;0.93;;;;;;;23.45;68.15;101023.72;5171840;28;20088;-80
2023/06/21 08:43:38;;;;;;;2.03;1.65;;;;;;;23.46;67.63;101028.94;5163374;28;20109;-81
2023/06/21 08:46:34;;;;;;;0.88;0.88;;;;;;;23.57;66.79;101028.09;5156579;28;20038;-79
2023/06/21 08:49:28;;;;;;;1.00;0.90;;;;;;;23.48;67.99;101027.00;5175726;28;20026;-80
2023/06/21 08:52:20;;;;;;;1.50;1.40;;;;;;;23.38;67.15;101031.34;5172792;28;20469;-80
2023/06/21 08:55:16;;;;;;;1.38;1.27;;;;;;;23.51;67.79;101032.09;5162112;28;20029;-81
2023/06/21 08:58:14;;;;;;;0.43;0.43;;;;;;;23.56;67.47;101032.63;5162520;28;20041;-80
2023/06/21 09:01:09;;;;;;;1.17;1.08;;;;;;;23.35;67.72;101029.75;5146268;28;20042;-79
2023/06/21 09:04:03;;;;;;;1.35;1.25;;;;;;;23.53;67.94;101030.16;5144397;28;20033;-80
2023/06/21 09:06:55;;;;;;;1.05;0.98;;;;;;;23.61;66.86;101042.97;5177549;28;20045;-82
2023/06/21 09:09:48;;;;;;;1.08;1.00;;;;;;;23.67;67.24;101041.66;5174204;28;20115;-81
2023/06/21 09:12:39;;;;;;;1.30;1.27;;;;;;;23.43;67.48;101039.88;5166541;28;20038;-81
2023/06/21 09:15:32;;;;;;;1.08;1.00;;;;;;;23.52;66.96;101043.69;5177738;28;20042;-80
2023/06/21 09:18:23;;;;;;;1.02;0.98;;;;;;;23.60;67.05;101051.09;5165694;28;20065;-81
2023/06/21 09:21:15;;;;;;;1.15;1.05;;;;;;;23.50;66.94;101046.47;5187502;28;20027;-81
2023/06/21 09:24:06;;;;;;;0.50;0.50;;;;;;;23.71;66.16;101045.78;5180472;28;20044;-80
2023/06/21 09:26:58;;;;;;;1.05;1.05;;;;;;;23.76;66.22;101042.75;5179381;28;20038;-79
2023/06/21 09:29:49;;;;;;;1.20;0.70;;;;;;;23.78;66.05;101044.31;5203621;23;20160;-82
2023/06/21 09:32:41;;;;;;;1.48;1.13;;;;;;;23.86;65.43;101041.91;5208529;28;20637;-82
2023/06/21 09:35:33;;;;;;;0.80;0.77;;;;;;;23.83;66.04;101041.28;5198243;28;20053;-82
2023/06/21 09:38:32;;;;;;;1.65;1.50;;;;;;;23.89;65.77;101047.03;5192404;28;20430;-82
2023/06/21 09:41:24;;;;;;;0.88;0.88;;;;;;;24.00;65.25;101040.00;5210556;28;20325;-82
2023/06/21 09:44:20;;;;;;;2.05;1.10;;;;;;;23.98;65.38;101044.63;5237675;28;20108;-82
2023/06/21 09:47:12;;;;;;;6.00;1.95;;;;;;;24.02;64.31;101052.31;5231527;28;20041;-82
2023/06/21 09:50:07;;;;;;;1.13;1.02;;;;;;;23.95;64.02;101059.13;5225976;28;20028;-82
2023/06/21 09:52:58;;;;;;;2.72;1.90;;;;;;;24.01;64.80;101060.44;5213768;28;20119;-82
2023/06/21 09:55:52;;;;;;;1.50;1.40;;;;;;;24.11;64.27;101060.59;5216062;28;20522;-82
2023/06/21 09:58:50;;;;;;;1.65;1.27;;;;;;;24.10;64.63;101059.72;5220612;28;20025;-82
2023/06/21 10:01:46;;;;;;;1.00;1.00;;;;;;;24.18;63.96;101072.53;5214979;28;20021;-82
2023/06/21 10:04:42;;;;;;;1.30;1.05;;;;;;;24.29;64.16;101071.66;5233593;28;20053;-82
2023/06/21 10:07:43;;;;;;;1.02;0.93;;;;;;;24.32;63.67;101076.81;5224815;28;20166;-82
2023/06/21 10:10:34;;;;;;;1.75;1.33;;;;;;;24.14;64.34;101085.31;5217073;28;20036;-83
2023/06/21 10:13:26;;;;;;;1.40;1.30;;;;;;;24.26;63.52;101074.59;5225678;28;20040;-82
2023/06/21 10:16:19;;;;;;;0.68;0.65;;;;;;;24.17;63.82;101076.19;5215915;28;20136;-82
2023/06/21 10:19:10;;;;;;;1.02;0.75;;;;;;;24.40;63.33;101085.09;5228977;28;20029;-82
2023/06/21 10:22:16;;;;;;;1.00;1.00;;;;;;;24.44;62.55;101088.38;5225306;28;20056;-83
2023/06/21 10:25:08;;;;;;;0.77;0.77;;;;;;;24.35;62.29;101085.44;5225227;28;20027;-82
2023/06/21 10:28:01;;;;;;;0.52;0.52;;;;;;;24.43;61.60;101092.03;5237949;28;20052;-82
2023/06/21 10:30:54;;;;;;;;;;;;;;;24.47;62.01;101088.09;5234976;28;20097;-82
2023/06/21 10:33:48;;;;;;;0.43;0.43;;;;;;;24.60;61.91;101093.34;5230294;28;19908;-83
2023/06/21 10:36:45;;;;;;;0.82;0.82;;;;;;;24.35;61.14;101095.31;5228642;28;20495;-84
2023/06/21 10:39:36;;;;;;;0.68;0.68;;;;;;;24.44;61.90;101097.25;5240310;28;20154;-82
2023/06/21 10:42:29;;;;;;;0.63;0.63;;;;;;;24.56;60.58;101105.31;5233298;28;20041;-83
2023/06/21 10:45:20;;;;;;;0.90;0.88;;;;;;;24.69;59.87;101095.31;5231504;28;20119;-82
2023/06/21 10:48:12;;;;;;;0.70;0.70;;;;;;;24.82;60.91;101093.34;5221411;28;20090;-82
2023/06/21 10:51:04;;;;;;;1.77;1.63;;;;;;;24.86;60.03;101093.06;5229263;28;20063;-82
2023/06/21 10:53:55;;;;;;;1.10;0.82;;;;;;;24.91;60.60;101096.25;5217343;28;20322;-82
2023/06/21 10:56:46;;;;;;;0.95;0.75;;;;;;;24.84;60.17;101101.25;5231621;28;20028;-82
2023/06/21 10:59:37;;;;;;;1.35;0.77;;;;;;;24.99;60.31;101101.84;5239433;28;20515;-82
2023/06/21 11:02:29;;;;;;;0.90;0.57;;;;;;;25.11;59.31;101103.50;5227205;28;20819;-82
2023/06/21 11:05:21;;;;;;;0.70;0.70;;;;;;;25.14;58.25;101103.25;5248444;28;20119;-82
2023/06/21 11:08:14;;;;;;;1.02;0.77;;;;;;;25.14;57.60;101100.56;5242721;28;20036;-82
2023/06/21 11:11:04;;;;;;;;;;;;;;;25.29;57.81;101108.31;5226741;28;20037;-82
2023/06/21 11:13:56;;;;;;;0.55;0.55;;;;;;;25.32;56.63;101099.16;5231616;28;19920;-82
2023/06/21 11:16:46;;;;;;;2.15;1.15;;;;;;;25.24;56.05;101113.22;5258214;28;20040;-82
2023/06/21 11:19:37;;;;;;;0.40;0.40;;;;;;;25.27;56.32;101110.28;5248360;28;20029;-81
2023/06/21 11:22:28;;;;;;;0.60;0.60;;;;;;;25.40;56.15;101113.69;5254298;28;20021;-81
2023/06/21 11:25:19;;;;;;;1.45;0.75;;;;;;;25.40;56.46;101111.00;5239930;28;20138;-80
2023/06/21 11:28:19;;;;;;;0.82;0.70;;;;;;;25.56;55.84;101110.53;5256543;28;20036;-81
2023/06/21 11:31:13;;;;;;;0.50;0.50;;;;;;;25.53;55.36;101097.38;5253112;28;20087;-81
2023/06/21 11:34:06;;;;;;;0.40;0.40;;;;;;;25.39;56.19;101106.59;5235290;28;20045;-81
2023/06/21 11:36:56;;;;;;;0.63;0.63;;;;;;;25.58;55.95;101108.56;5253473;28;20079;-81
2023/06/21 11:39:57;;;;;;;1.45;0.70;;;;;;;25.55;54.22;101116.88;5236409;28;20025;-82
2023/06/21 11:42:49;;;;;;;1.52;1.42;;;;;;;25.73;54.38;101103.75;5236220;28;20498;-81
2023/06/21 11:45:40;;;;;;;1.48;0.77;;;;;;;25.68;54.20;101115.88;5240025;28;20515;-81
2023/06/21 11:48:30;;;;;;;0.38;0.38;;;;;;;25.71;53.90;101108.38;5238900;28;20032;-81
2023/06/21 11:51:21;;;;;;;1.30;1.20;;;;;;;25.73;55.04;101113.63;5246876;28;20029;-81
2023/06/21 11:54:28;;;;;;;0.80;0.73;;;;;;;25.85;55.26;101112.59;5224193;28;20124;-81
2023/06/21 11:57:19;;;;;;;1.58;0.82;;;;;;;26.15;53.87;101113.63;5221552;28;20550;-82
2023/06/21 12:00:10;;;;;;;5.38;0.60;;;;;;;26.10;52.64;101117.69;5225093;28;20031;-80
2023/06/21 12:03:06;;;;;;;1.13;0.80;;;;;;;26.21;52.64;101115.75;5228966;28;20484;-83
2023/06/21 12:05:58;;;;;;;1.33;0.80;;;;;;;26.35;52.15;101124.47;5220977;28;20128;-84
2023/06/21 12:08:54;;;;;;;0.52;0.52;;;;;;;26.22;51.22;101124.69;5230784;28;20036;-82
2023/06/21 12:11:49;;;;;;;0.65;0.65;;;;;;;26.14;51.45;101124.53;5246075;28;20405;-81
2023/06/21 12:14:40;;;;;;;0.60;0.60;;;;;;;26.38;50.38;101114.28;5235368;28;20082;-81
2023/06/21 12:17:31;;;;;;;0.40;0.40;;;;;;;26.47;51.11;101111.78;5229729;28;20328;-81
2023/06/21 12:20:21;;;;;;;0.50;0.50;;;;;;;26.67;50.09;101118.91;5220624;28;20069;-82
2023/06/21 12:23:12;;;;;;;0.20;0.20;;;;;;;26.34;50.92;101122.78;5236456;28;20031;-82
2023/06/21 12:26:05;;;;;;;0.50;0.50;;;;;;;26.45;51.12;101119.13;5235040;28;20028;-82
2023/06/21 12:28:56;;;;;;;0.63;0.50;;;;;;;26.76;50.53;101127.16;5227107;28;20059;-82
2023/06/21 12:31:47;;;;;;;0.60;0.60;;;;;;;26.73;50.43;101122.06;5238651;28;20291;-82
2023/06/21 12:34:39;;;;;;;1.02;0.80;;;;;;;26.73;50.10;101127.44;5229352;28;20709;-82
2023/06/21 12:37:30;;;;;;;0.63;0.63;;;;;;;26.78;49.54;101125.22;5238757;28;20447;-82
2023/06/21 12:40:21;;;;;;;0.20;0.20;;;;;;;26.82;48.60;101126.63;5231142;28;20211;-82
2023/06/21 12:43:12;;;;;;;0.50;0.50;;;;;;;26.90;48.84;101123.25;5231811;28;20028;-82
2023/06/21 12:46:04;;;;;;;0.60;0.60;;;;;;;26.91;49.58;101119.56;5228835;28;20048;-82
2023/06/21 12:48:58;;;;;;;1.30;0.98;;;;;;;27.06;49.95;101125.41;5240651;28;20035;-82
2023/06/21 12:51:49;;;;;;;0.47;0.47;;;;;;;27.15;49.63;101127.25;5218058;28;20099;-82
2023/06/21 12:54:57;;;;;;;1.05;0.95;;;;;;;27.26;47.91;101129.81;5230292;28;20489;-82
2023/06/21 12:57:48;;;;;;;4.28;0.60;;;;;;;27.51;47.60;101121.34;5235449;28;20041;-82
2023/06/21 13:00:39;;;;;;;0.20;0.20;;;;;;;27.84;46.59;101130.78;5223921;28;20044;-82
2023/06/21 13:03:30;;;;;;;0.68;0.52;;;;;;;27.76;46.82;101136.06;5217513;28;20471;-83
2023/06/21 13:06:22;;;;;;;1.30;0.85;;;;;;;27.67;45.58;101136.91;5220023;28;20032;-82
2023/06/21 13:09:14;;;;;;;0.57;0.57;;;;;;;27.80;47.30;101132.94;5230150;28;20020;-82
2023/06/21 13:12:05;;;;;;;0.28;0.28;;;;;;;27.94;45.04;101128.94;5229325;28;20043;-82
2023/06/21 13:14:56;;;;;;;0.43;0.43;;;;;;;28.00;45.37;101129.31;5228710;28;20033;-82
2023/06/21 13:17:47;;;;;;;0.30;0.30;;;;;;;28.32;45.16;101130.81;5228924;28;20045;-83
2023/06/21 13:20:37;;;;;;;0.30;0.30;;;;;;;28.32;44.63;101138.91;5214323;28;20054;-82
2023/06/21 13:23:28;;;;;;;0.47;0.47;;;;;;;27.96;43.77;101135.03;5240260;28;20063;-82